Time;durP1;ratioP1;P1;durP2;ratioP2;P2;SDS_P1;SDS_P2;PMS_P1;PMS_P2;Temp;Humidity;BMP_temperature;BMP_pressure;BME280_temperature;BME280_humidity;BME280_pressure;Samples;Min_cycle;Max_cycle;Signal;HPM_P1;HPM_P2
2022/01/26 00:07:12;;;;;;;105.78;41.50;;;;;;;-1.99;38.70;95982.84;5010263;28;20208;-62
2022/01/26 00:09:38;;;;;;;106.47;40.95;;;;;;;-1.78;38.06;95985.81;5009792;28;20194;-63
2022/01/26 00:12:06;;;;;;;116.22;45.97;;;;;;;-1.63;37.89;95979.16;5009991;28;20727;-61
2022/01/26 00:14:34;;;;;;;122.53;47.45;;;;;;;-1.82;38.08;95963.97;5009771;28;20201;-60
2022/01/26 00:17:01;;;;;;;117.45;46.58;;;;;;;-1.47;38.00;95980.97;5009906;28;20548;-62
2022/01/26 00:19:44;;;;;;;107.88;46.65;;;;;;;-1.72;37.97;95969.81;5010045;28;20194;-61
2022/01/26 00:22:13;;;;;;;119.55;46.78;;;;;;;-1.67;37.66;95949.59;5009990;28;20201;-61
2022/01/26 00:25:19;;;;;;;97.63;42.22;;;;;;;-2.09;38.27;95971.84;5010135;28;20198;-62
2022/01/26 00:28:33;;;;;;;95.57;38.03;;;;;;;-2.07;38.02;95975.06;5010331;28;20283;-62
2022/01/26 00:38:49;;;;;;;87.30;35.97;;;;;;;-2.24;38.66;95955.38;5009733;28;20230;-63
2022/01/26 00:41:30;;;;;;;79.68;33.90;;;;;;;-1.78;37.93;95965.28;5009570;28;20590;-63
2022/01/26 00:44:00;;;;;;;94.47;34.85;;;;;;;-2.09;38.23;95971.84;5013660;28;20210;-62
2022/01/26 00:46:27;;;;;;;95.20;38.20;;;;;;;-1.87;37.78;95975.66;5013976;28;20296;-61
2022/01/26 00:48:54;;;;;;;100.13;41.50;;;;;;;-1.82;38.01;95971.66;5013396;28;20200;-62
2022/01/26 00:51:22;;;;;;;106.63;41.10;;;;;;;-1.93;38.02;95971.94;5014167;28;20189;-63
2022/01/26 00:54:02;;;;;;;98.38;40.88;;;;;;;-1.70;37.69;95979.91;5013328;28;20197;-62
2022/01/26 00:56:29;;;;;;;103.57;44.03;;;;;;;-1.66;37.77;95974.31;5013645;28;20202;-62
2022/01/26 00:58:56;;;;;;;102.15;42.42;;;;;;;-1.66;37.51;95964.03;5013298;28;20197;-62
2022/01/26 01:01:23;;;;;;;108.47;42.95;;;;;;;-2.13;37.79;95976.47;5013774;28;20277;-62
2022/01/26 01:03:50;;;;;;;107.40;40.83;;;;;;;-1.70;37.74;95962.75;5013135;28;20573;-61
2022/01/26 01:06:30;;;;;;;114.90;47.25;;;;;;;-1.91;38.04;95959.75;5014014;28;20193;-61
2022/01/26 01:08:58;;;;;;;125.75;46.90;;;;;;;-2.03;37.65;95958.41;5012828;28;20633;-61
2022/01/26 01:11:26;;;;;;;136.85;57.08;;;;;;;-1.91;38.54;95964.88;5013050;28;20846;-61
2022/01/26 01:13:54;;;;;;;145.73;58.50;;;;;;;-1.82;38.20;95958.81;5012867;28;20204;-61
2022/01/26 01:16:23;;;;;;;139.05;56.30;;;;;;;-1.94;38.38;95959.25;5013161;28;20240;-62
2022/01/26 01:21:58;;;;;;;131.68;50.15;;;;;;;-1.72;38.14;95956.97;5013382;28;20247;-61
2022/01/26 01:27:42;;;;;;;105.22;43.17;;;;;;;-2.30;39.16;95963.69;5020530;28;20245;-62
2022/01/26 01:30:05;;;;;;;99.07;37.95;;;;;;;-2.17;39.25;95958.94;5012475;28;20684;-63
2022/01/26 01:32:39;;;;;;;96.53;38.25;;;;;;;-1.72;38.73;95953.56;5013147;28;20217;-61
2022/01/26 01:35:09;;;;;;;100.43;41.15;;;;;;;-1.66;38.44;95948.59;5012482;28;20712;-62
2022/01/26 01:37:36;;;;;;;105.13;41.28;;;;;;;-2.04;38.56;95943.16;5012443;28;20235;-62
2022/01/26 01:40:04;;;;;;;103.40;41.67;;;;;;;-2.40;39.50;95950.16;5012508;28;20206;-61
2022/01/26 01:42:31;;;;;;;101.45;42.45;;;;;;;-3.39;40.63;95928.16;5012923;28;20206;-61
2022/01/26 01:44:58;;;;;;;104.68;43.60;;;;;;;-2.70;40.01;95940.31;5012082;28;20194;-62
2022/01/26 01:47:25;;;;;;;97.85;42.25;;;;;;;-2.78;40.06;95938.50;5012788;28;20193;-61
2022/01/26 01:49:52;;;;;;;92.32;37.03;;;;;;;-2.74;40.16;95933.88;5012135;28;20635;-62
2022/01/26 01:52:19;;;;;;;96.82;40.58;;;;;;;-2.78;40.41;95917.16;5012355;28;20204;-62
2022/01/26 01:54:51;;;;;;;93.95;39.67;;;;;;;-2.21;39.68;95926.84;5011193;28;20684;-61
2022/01/26 01:57:23;;;;;;;93.20;39.72;;;;;;;-2.61;39.97;95929.16;5012789;28;20272;-62
2022/01/26 01:59:51;;;;;;;94.88;37.05;;;;;;;-2.32;39.83;95925.31;5011813;28;20197;-63
2022/01/26 02:02:18;;;;;;;96.85;41.35;;;;;;;-2.20;39.92;95907.91;5012561;28;20205;-61
2022/01/26 02:04:45;;;;;;;91.03;36.70;;;;;;;-2.03;39.51;95919.88;5012164;28;20631;-62
2022/01/26 02:07:13;;;;;;;89.72;35.45;;;;;;;-1.79;39.24;95912.28;5012134;28;20202;-62
2022/01/26 02:09:40;;;;;;;89.32;38.72;;;;;;;-1.68;39.02;95924.84;5012439;28;20202;-62
2022/01/26 02:12:16;;;;;;;86.20;38.03;;;;;;;-1.49;38.88;95919.44;5012337;28;20661;-61
2022/01/26 02:14:49;;;;;;;86.88;36.58;;;;;;;-1.52;38.82;95912.06;5011855;28;20684;-62
2022/01/26 02:50:59;;;;;;;78.95;33.03;;;;;;;-1.47;39.66;95912.38;5011591;28;20190;-62
2022/01/26 02:55:50;;;;;;;85.07;37.10;;;;;;;-1.48;39.73;95895.34;5011752;28;20205;-62
2022/01/26 03:03:48;;;;;;;104.00;43.40;;;;;;;-1.66;39.69;95911.84;5010971;28;20194;-62
2022/01/26 03:06:20;;;;;;;91.10;40.70;;;;;;;-1.00;38.77;95899.75;5011366;28;20264;-62
2022/01/26 03:08:54;;;;;;;94.00;42.47;;;;;;;-1.59;39.61;95907.69;5010784;28;20202;-62
2022/01/26 03:11:26;;;;;;;108.88;45.30;;;;;;;-1.41;39.49;95896.34;5011272;28;20629;-62
2022/01/26 03:14:07;;;;;;;112.45;47.13;;;;;;;-1.40;39.36;95897.94;5011085;28;20201;-63
2022/01/26 03:16:41;;;;;;;107.00;44.60;;;;;;;-1.48;39.71;95899.69;5011242;28;20222;-61
2022/01/26 03:19:22;;;;;;;108.95;46.80;;;;;;;-1.52;39.57;95899.22;5010684;28;20287;-61
2022/01/26 03:30:34;;;;;;;105.13;43.15;;;;;;;-1.33;39.57;95892.97;5010423;28;20197;-61
2022/01/26 03:35:31;;;;;;;104.25;41.88;;;;;;;-1.67;40.33;95898.19;5011202;28;20186;-62
2022/01/26 03:37:59;;;;;;;102.18;45.53;;;;;;;-1.76;40.54;95895.75;5010497;28;20317;-61
2022/01/26 03:40:32;;;;;;;115.90;48.58;;;;;;;-1.71;40.68;95884.03;5010752;28;20198;-62
2022/01/26 03:43:00;;;;;;;115.65;51.10;;;;;;;-1.43;40.23;95887.16;5011527;28;20255;-61
2022/01/26 03:45:27;;;;;;;124.47;49.88;;;;;;;-1.49;40.15;95888.59;5012359;28;20209;-63
2022/01/26 03:47:55;;;;;;;114.10;50.42;;;;;;;-1.73;40.75;95880.03;5011126;28;20212;-61
2022/01/26 03:50:23;;;;;;;116.45;50.90;;;;;;;-1.53;40.54;95881.34;5010769;28;20657;-62
2022/01/26 03:52:50;;;;;;;119.18;50.85;;;;;;;-1.44;40.46;95883.78;5013708;28;20289;-63
2022/01/26 03:55:17;;;;;;;112.05;49.03;;;;;;;-1.29;39.84;95877.06;5013619;28;20205;-61
2022/01/26 03:57:44;;;;;;;112.15;48.45;;;;;;;-1.22;40.11;95880.63;5011024;28;20221;-63
2022/01/26 04:00:12;;;;;;;110.45;49.20;;;;;;;-1.43;40.18;95872.56;5009862;28;20200;-62
2022/01/26 04:02:39;;;;;;;118.75;48.63;;;;;;;-1.41;40.30;95875.78;5010568;28;20672;-61
2022/01/26 04:05:10;;;;;;;120.15;50.90;;;;;;;-1.48;40.47;95879.13;5010286;28;20641;-61
2022/01/26 04:07:38;;;;;;;124.30;52.72;;;;;;;-1.75;40.50;95867.31;5010398;28;20196;-61
2022/01/26 04:10:20;;;;;;;117.35;51.00;;;;;;;-1.61;40.49;95868.50;5009980;28;20205;-63
2022/01/26 04:12:48;;;;;;;119.75;51.47;;;;;;;-1.33;40.14;95878.34;5009983;28;20711;-61
2022/01/26 04:15:25;;;;;;;119.47;51.00;;;;;;;-1.55;40.62;95868.66;5010048;28;20747;-62
2022/01/26 04:17:53;;;;;;;115.20;51.35;;;;;;;-1.28;40.24;95862.47;5008975;28;20237;-61
2022/01/26 04:20:23;;;;;;;129.65;54.35;;;;;;;-1.52;40.52;95863.22;5009864;28;20202;-61
2022/01/26 04:25:41;;;;;;;112.28;49.55;;;;;;;-1.42;40.24;95869.00;5012525;28;20731;-62
2022/01/26 04:28:14;;;;;;;117.32;51.60;;;;;;;-1.34;40.56;95860.50;5009299;28;20610;-62
2022/01/26 04:30:41;;;;;;;112.15;48.22;;;;;;;-1.28;40.03;95855.53;5009972;28;20755;-62
2022/01/26 04:33:08;;;;;;;119.53;49.45;;;;;;;-1.23;39.95;95858.44;5009660;28;20755;-62
2022/01/26 04:35:40;;;;;;;111.00;48.90;;;;;;;-1.20;40.22;95865.03;5010062;28;20205;-62
2022/01/26 04:38:16;;;;;;;100.07;45.40;;;;;;;-1.49;40.45;95860.34;5009464;28;20240;-62
2022/01/26 04:43:32;;;;;;;112.63;48.35;;;;;;;-1.46;40.52;95857.44;5010185;28;20720;-60
2022/01/26 04:45:59;;;;;;;100.03;46.55;;;;;;;-1.64;41.01;95851.63;5009905;28;20194;-62
2022/01/26 04:48:26;;;;;;;102.93;46.50;;;;;;;-1.57;41.04;95855.16;5009029;28;20200;-62
2022/01/26 04:50:53;;;;;;;95.57;44.38;;;;;;;-1.46;40.90;95851.50;5009992;28;20194;-63
2022/01/26 04:53:20;;;;;;;98.15;44.28;;;;;;;-1.75;41.65;95851.91;5009582;28;20205;-62
2022/01/26 04:55:47;;;;;;;101.70;43.90;;;;;;;-1.58;41.19;95853.56;5010287;28;20197;-63
2022/01/26 04:58:14;;;;;;;103.05;46.15;;;;;;;-1.28;40.76;95855.53;5008996;28;20218;-62
2022/01/26 05:00:41;;;;;;;102.50;46.60;;;;;;;-1.35;40.97;95859.69;5005860;28;20205;-61
2022/01/26 05:03:08;;;;;;;120.25;50.97;;;;;;;-1.42;40.99;95837.34;5005897;28;20567;-63
2022/01/26 05:05:39;;;;;;;108.65;49.38;;;;;;;-1.27;41.00;95857.16;5005931;28;20194;-62
2022/01/26 05:08:06;;;;;;;126.70;54.75;;;;;;;-1.26;41.06;95851.03;5004026;28;20198;-61
2022/01/26 05:10:34;;;;;;;114.53;53.38;;;;;;;-1.28;40.99;95859.88;5006375;28;20256;-61
2022/01/26 05:13:01;;;;;;;120.00;56.20;;;;;;;-1.57;41.56;95859.53;5005479;28;20954;-61
2022/01/26 05:15:28;;;;;;;116.00;53.40;;;;;;;-1.51;41.73;95857.13;5006168;28;20206;-62
2022/01/26 05:17:55;;;;;;;121.00;52.97;;;;;;;-1.80;42.43;95854.16;5008926;28;20315;-61
2022/01/26 05:20:22;;;;;;;115.32;50.38;;;;;;;-1.79;42.07;95855.78;5009525;28;20202;-61
2022/01/26 05:22:49;;;;;;;115.75;52.45;;;;;;;-1.89;42.22;95860.22;4993286;28;20249;-61
2022/01/26 05:25:16;;;;;;;113.28;52.42;;;;;;;-2.69;44.33;95864.97;4989508;28;20655;-58
2022/01/26 05:27:42;;;;;;;117.68;53.25;;;;;;;-2.26;43.74;95857.19;4989506;28;20593;-62
2022/01/26 05:30:10;;;;;;;116.18;54.35;;;;;;;-1.93;43.12;95847.88;4992593;28;20635;-62
2022/01/26 05:32:37;;;;;;;114.30;52.72;;;;;;;-1.59;42.37;95851.16;4993391;28;20206;-62
2022/01/26 05:35:04;;;;;;;124.20;54.58;;;;;;;-1.40;42.39;95843.97;4992547;28;20186;-60
2022/01/26 05:37:31;;;;;;;113.25;53.22;;;;;;;-1.39;42.56;95837.88;4993175;28;20219;-62
2022/01/26 05:39:58;;;;;;;104.63;44.40;;;;;;;-1.94;43.17;95831.66;4992445;28;20238;-60
2022/01/26 05:42:25;;;;;;;110.60;50.60;;;;;;;-1.41;42.88;95847.50;4992952;28;20212;-61
2022/01/26 05:44:54;;;;;;;122.90;50.50;;;;;;;-0.98;41.67;95843.00;4993190;28;20206;-60
2022/01/26 05:47:21;;;;;;;149.80;66.10;;;;;;;-1.08;44.50;95846.53;4992692;28;20273;-62
2022/01/26 05:49:48;;;;;;;137.02;62.38;;;;;;;-1.18;43.48;95835.63;4991478;28;20194;-59
2022/01/26 05:52:15;;;;;;;154.18;66.55;;;;;;;-1.13;43.55;95842.84;4992060;28;20214;-62
2022/01/26 05:54:41;;;;;;;146.45;60.03;;;;;;;-1.20;43.20;95836.72;4991875;28;20226;-66
2022/01/26 05:57:08;;;;;;;133.13;59.83;;;;;;;-1.18;43.03;95843.34;4992645;28;20202;-62
2022/01/26 05:59:35;;;;;;;141.60;60.47;;;;;;;-1.02;42.89;95851.06;4991670;28;20967;-61
2022/01/26 06:02:02;;;;;;;137.43;59.65;;;;;;;-1.03;42.69;95843.50;4992742;28;20884;-61
2022/01/26 06:04:29;;;;;;;150.55;63.65;;;;;;;-1.61;43.43;95843.63;4992084;28;20190;-62
2022/01/26 06:06:57;;;;;;;149.75;62.88;;;;;;;-1.41;43.39;95850.06;4992510;28;20577;-62
2022/01/26 06:09:24;;;;;;;138.00;59.35;;;;;;;-1.31;43.37;95845.56;4991840;28;20197;-62
2022/01/26 06:11:51;;;;;;;133.10;58.42;;;;;;;-1.29;43.51;95841.06;4992463;28;20191;-62
2022/01/26 06:14:18;;;;;;;136.60;60.83;;;;;;;-1.22;44.06;95844.63;4991776;28;20206;-61
2022/01/26 06:16:44;;;;;;;132.00;60.60;;;;;;;-1.13;43.66;95838.50;4991824;28;20238;-64
2022/01/26 06:19:11;;;;;;;125.57;56.38;;;;;;;-1.16;43.74;95835.47;4991794;28;20222;-61
2022/01/26 06:21:38;;;;;;;87.78;40.33;;;;;;;-1.22;44.06;95830.94;4992297;28;20207;-62
2022/01/26 06:24:06;;;;;;;65.00;32.30;;;;;;;-1.14;43.68;95831.78;5011447;28;20209;-62
2022/01/26 06:26:33;;;;;;;46.33;21.75;;;;;;;-0.70;42.75;95833.97;5011394;28;20221;-61
2022/01/26 06:29:00;;;;;;;36.17;17.55;;;;;;;-0.56;42.67;95836.69;5010582;28;20704;-61
2022/01/26 06:31:28;;;;;;;29.73;15.38;;;;;;;-0.14;42.01;95831.25;5011175;28;20645;-62
2022/01/26 06:33:57;;;;;;;31.30;14.35;;;;;;;0.31;40.96;95821.03;5008814;28;20202;-62
2022/01/26 06:36:24;;;;;;;18.92;9.15;;;;;;;0.24;40.53;95809.81;5009686;28;20647;-61
2022/01/26 06:38:50;;;;;;;32.03;14.80;;;;;;;0.74;40.48;95812.72;5008429;28;20666;-60
2022/01/26 06:41:23;;;;;;;35.70;16.50;;;;;;;1.03;39.98;95812.81;5009272;28;20225;-62
2022/01/26 06:43:59;;;;;;;30.98;14.48;;;;;;;0.78;40.68;95806.25;5009126;28;20684;-62
2022/01/26 06:46:37;;;;;;;33.90;14.95;;;;;;;0.70;40.93;95816.63;5009976;28;20206;-61
2022/01/26 06:51:37;;;;;;;26.40;12.25;;;;;;;-0.61;43.54;95838.16;5011537;28;20233;-62
2022/01/26 06:54:05;;;;;;;29.58;13.23;;;;;;;-0.22;43.35;95834.66;5010828;28;20186;-61
2022/01/26 06:56:32;;;;;;;27.92;13.27;;;;;;;-0.50;43.84;95830.09;5011298;28;20277;-61
2022/01/26 06:58:58;;;;;;;32.65;14.77;;;;;;;0.12;43.22;95831.78;5010038;28;20226;-61
2022/01/26 07:01:25;;;;;;;31.25;14.55;;;;;;;0.24;43.28;95840.75;5011082;28;20193;-61
2022/01/26 07:03:52;;;;;;;31.63;14.73;;;;;;;-0.14;43.85;95849.28;5010423;28;20178;-63
2022/01/26 07:06:19;;;;;;;33.47;15.95;;;;;;;-0.09;43.88;95839.28;5011756;28;20280;-61
2022/01/26 07:08:46;;;;;;;50.47;22.05;;;;;;;0.16;43.55;95827.91;5010347;28;20204;-61
2022/01/26 07:11:13;;;;;;;34.33;15.95;;;;;;;0.64;42.79;95837.94;5010838;28;20256;-62
2022/01/26 07:13:41;;;;;;;25.60;11.73;;;;;;;0.25;43.64;95837.22;5010502;28;20245;-60
2022/01/26 07:21:39;;;;;;;34.05;15.45;;;;;;;0.51;44.43;95829.94;5010480;28;20197;-61
2022/01/26 07:24:06;;;;;;;34.42;17.00;;;;;;;0.76;43.83;95822.88;5009875;28;20242;-61
2022/01/26 07:26:33;;;;;;;34.60;16.70;;;;;;;0.91;43.93;95824.50;5010824;28;20209;-61
2022/01/26 07:29:07;;;;;;;36.55;16.98;;;;;;;0.79;43.91;95825.91;5010078;28;20463;-61
2022/01/26 07:31:36;;;;;;;36.92;16.80;;;;;;;0.99;43.79;95831.38;5010466;28;20205;-60
2022/01/26 07:34:03;;;;;;;35.42;15.32;;;;;;;0.64;44.09;95832.78;5010350;28;20213;-61
2022/01/26 07:36:30;;;;;;;32.08;15.48;;;;;;;0.39;45.19;95828.75;5010585;28;20194;-61
2022/01/26 07:39:07;;;;;;;38.17;16.42;;;;;;;0.73;44.21;95838.69;5009912;28;20301;-60
2022/01/26 07:41:34;;;;;;;35.85;15.98;;;;;;;0.59;44.33;95829.91;5010281;28;20213;-61
2022/01/26 07:44:03;;;;;;;36.42;15.70;;;;;;;0.69;44.29;95838.22;5010130;28;20691;-61
2022/01/26 07:46:30;;;;;;;33.95;14.35;;;;;;;0.67;44.60;95837.59;5010614;28;20657;-60
2022/01/26 07:48:57;;;;;;;32.42;14.85;;;;;;;0.56;44.81;95835.41;5009528;28;20209;-60
2022/01/26 07:51:24;;;;;;;30.33;15.05;;;;;;;0.88;44.81;95845.50;5009145;28;20672;-61
2022/01/26 07:53:51;;;;;;;27.23;12.00;;;;;;;0.72;44.75;95837.88;5009884;28;20198;-60
2022/01/26 07:56:18;;;;;;;34.05;14.32;;;;;;;1.00;44.18;95802.81;5009925;28;20237;-60
2022/01/26 07:58:48;;;;;;;33.83;14.95;;;;;;;0.96;44.62;95837.72;5009383;28;20212;-61
2022/01/26 08:01:15;;;;;;;31.65;14.18;;;;;;;0.53;45.66;95835.75;5010023;28;20194;-60
2022/01/26 08:03:42;;;;;;;30.73;15.75;;;;;;;1.10;45.16;95835.31;5010051;28;20221;-61
2022/01/26 08:06:15;;;;;;;30.00;15.60;;;;;;;1.41;45.53;95838.59;5011047;28;20205;-61
2022/01/26 08:08:42;;;;;;;26.48;14.50;;;;;;;1.58;44.51;95842.63;5012653;28;20190;-60
2022/01/26 08:11:09;;;;;;;34.28;15.45;;;;;;;1.66;45.12;95834.81;5012779;28;20193;-61
2022/01/26 08:13:36;;;;;;;32.78;13.95;;;;;;;1.58;44.91;95821.97;5010127;28;20206;-61
2022/01/26 08:16:03;;;;;;;30.45;15.38;;;;;;;1.69;44.85;95829.28;5009600;28;20302;-60
2022/01/26 08:18:30;;;;;;;30.20;14.57;;;;;;;1.92;44.51;95835.16;5009351;28;20201;-62
2022/01/26 08:21:04;;;;;;;29.88;15.55;;;;;;;1.43;45.80;95839.22;5009455;28;20250;-62
2022/01/26 08:23:32;;;;;;;32.03;15.00;;;;;;;1.59;45.67;95839.06;5009695;28;20241;-62
2022/01/26 08:25:59;;;;;;;28.17;14.55;;;;;;;1.73;45.78;95830.53;5009584;28;20186;-61
2022/01/26 08:28:39;;;;;;;31.50;15.15;;;;;;;1.87;45.56;95827.13;5009148;28;20677;-60
2022/01/26 08:31:06;;;;;;;30.10;15.10;;;;;;;1.72;45.61;95823.75;5009480;28;20696;-60
2022/01/26 08:33:33;;;;;;;31.17;14.85;;;;;;;1.76;45.49;95809.50;5009420;28;20248;-61
2022/01/26 08:36:00;;;;;;;30.70;14.80;;;;;;;2.07;45.08;95820.44;5009779;28;20674;-61
2022/01/26 08:38:27;;;;;;;27.65;12.90;;;;;;;1.90;45.65;95822.41;5009170;28;20289;-63
2022/01/26 08:40:54;;;;;;;28.83;13.52;;;;;;;2.34;44.80;95819.75;5009373;28;20260;-62
2022/01/26 08:43:21;;;;;;;30.55;14.27;;;;;;;2.40;44.90;95829.38;5009599;28;20265;-64
2022/01/26 08:45:47;;;;;;;28.88;14.88;;;;;;;3.24;43.27;95827.81;5009887;28;20198;-61
2022/01/26 08:48:14;;;;;;;27.00;14.52;;;;;;;3.22;43.20;95830.59;5009456;28;20208;-61
2022/01/26 08:50:41;;;;;;;29.65;15.15;;;;;;;2.89;44.07;95827.72;5009160;28;20194;-62
2022/01/26 08:53:09;;;;;;;65.95;29.83;;;;;;;3.10;43.00;95830.28;5009306;28;20190;-62
2022/01/26 08:55:36;;;;;;;31.98;14.77;;;;;;;2.90;43.73;95831.09;5009863;28;20194;-61
2022/01/26 08:58:04;;;;;;;28.27;14.40;;;;;;;2.81;43.91;95817.47;5009786;28;20662;-60
2022/01/26 09:00:32;;;;;;;26.17;14.90;;;;;;;3.00;43.78;95832.38;5009711;28;20283;-61
2022/01/26 09:02:59;;;;;;;25.63;14.50;;;;;;;2.75;44.46;95828.56;5010336;28;20260;-61
2022/01/26 09:05:27;;;;;;;26.80;14.02;;;;;;;2.34;45.09;95830.09;5013332;28;20209;-61
2022/01/26 09:07:57;;;;;;;25.92;13.48;;;;;;;2.73;44.72;95840.91;5013439;28;20234;-61
2022/01/26 09:10:27;;;;;;;26.30;13.45;;;;;;;2.46;45.57;95839.03;5013211;28;20210;-61
2022/01/26 09:12:54;;;;;;;28.00;13.73;;;;;;;2.48;45.48;95842.19;5012613;28;20202;-61
2022/01/26 09:15:27;;;;;;;24.48;12.48;;;;;;;2.75;45.04;95838.13;5013375;28;20206;-61
2022/01/26 09:17:59;;;;;;;23.10;11.00;;;;;;;1.93;46.72;95842.72;5012195;28;20221;-62
2022/01/26 09:20:27;;;;;;;18.83;9.82;;;;;;;2.37;45.73;95839.31;5012787;28;20340;-61
2022/01/26 09:22:54;;;;;;;25.38;12.95;;;;;;;2.88;45.23;95839.03;5012827;28;20217;-61
2022/01/26 09:25:21;;;;;;;25.75;13.85;;;;;;;2.94;44.53;95848.66;5013469;28;20209;-62
2022/01/26 09:27:48;;;;;;;27.35;13.07;;;;;;;2.87;45.25;95834.03;5012432;28;20198;-62
2022/01/26 09:30:15;;;;;;;24.73;13.15;;;;;;;3.03;44.68;95839.78;5012837;28;20210;-61
2022/01/26 09:32:42;;;;;;;23.30;13.45;;;;;;;3.50;43.75;95828.00;5012817;28;20233;-61
2022/01/26 09:35:11;;;;;;;24.40;13.10;;;;;;;3.04;44.65;95841.41;5012425;28;20216;-61
2022/01/26 09:37:38;;;;;;;21.33;10.98;;;;;;;2.51;45.78;95839.25;5012642;28;20226;-60
2022/01/26 09:40:06;;;;;;;23.33;12.57;;;;;;;2.94;45.41;95827.13;5011962;28;20218;-61
2022/01/26 09:42:36;;;;;;;24.25;13.38;;;;;;;3.50;44.21;95825.41;5012642;28;20233;-62
2022/01/26 09:45:04;;;;;;;25.50;13.82;;;;;;;3.58;43.75;95814.88;5012118;28;20197;-62
2022/01/26 09:47:32;;;;;;;25.00;13.27;;;;;;;3.22;44.44;95824.59;5012255;28;20213;-60
2022/01/26 09:50:19;;;;;;;30.23;14.18;;;;;;;3.41;44.49;95823.97;5012014;28;20196;-61
2022/01/26 09:52:48;;;;;;;26.02;12.95;;;;;;;3.33;45.00;95813.72;5012229;28;20197;-61
2022/01/26 09:55:16;;;;;;;22.38;11.95;;;;;;;3.34;45.11;95782.44;5011716;28;20294;-61
2022/01/26 09:57:44;;;;;;;29.02;13.82;;;;;;;3.55;44.86;95795.34;5012144;28;20205;-61
2022/01/26 10:00:12;;;;;;;23.10;12.30;;;;;;;3.76;43.83;95786.72;5011565;28;20257;-61
2022/01/26 10:02:43;;;;;;;29.75;15.18;;;;;;;4.10;43.07;95789.25;5012265;28;20197;-62
2022/01/26 10:05:16;;;;;;;32.78;15.98;;;;;;;4.83;42.30;95791.88;5012136;28;20232;-61
2022/01/26 10:08:51;;;;;;;26.58;12.57;;;;;;;4.90;41.76;95787.47;5012481;28;20245;-61
2022/01/26 10:17:34;;;;;;;26.75;13.15;;;;;;;4.14;43.34;95785.28;5012066;28;20263;-60
2022/01/26 10:19:33;;;;;;;26.80;12.85;;;;;;;4.23;43.25;95789.31;5013888;28;20225;-61
2022/01/26 10:22:00;;;;;;;24.67;13.35;;;;;;;4.75;42.92;95781.66;5011658;28;20264;-61
2022/01/26 10:24:29;;;;;;;23.90;13.52;;;;;;;4.07;44.36;95792.22;5011379;28;20205;-61
2022/01/26 10:27:00;;;;;;;25.00;11.82;;;;;;;4.25;43.81;95781.34;5011786;28;20197;-62
2022/01/26 10:29:29;;;;;;;22.42;12.90;;;;;;;4.76;43.10;95783.25;5011060;28;20214;-60
2022/01/26 10:31:56;;;;;;;20.25;9.93;;;;;;;4.47;43.54;95778.38;5011070;28;20219;-60
2022/01/26 10:34:24;;;;;;;21.35;12.35;;;;;;;4.66;43.16;95764.66;5011057;28;20224;-63
2022/01/26 10:36:57;;;;;;;23.10;12.95;;;;;;;5.22;42.52;95779.91;5011568;28;20235;-62
2022/01/26 10:39:32;;;;;;;24.15;13.20;;;;;;;4.75;43.11;95781.66;5011168;28;20254;-61
2022/01/26 10:42:05;;;;;;;23.23;12.80;;;;;;;4.34;43.82;95778.38;5011922;28;20256;-60
2022/01/26 10:44:34;;;;;;;25.85;13.25;;;;;;;4.49;44.00;95773.81;5011449;28;20197;-61
2022/01/26 10:47:04;;;;;;;23.70;12.15;;;;;;;4.25;44.45;95776.97;5011412;28;20677;-60
2022/01/26 10:52:22;;;;;;;23.98;12.93;;;;;;;4.35;44.80;95767.00;5011425;28;20214;-62
2022/01/26 10:54:50;;;;;;;20.48;11.02;;;;;;;4.79;43.87;95769.88;5010740;28;20194;-63
2022/01/26 10:57:18;;;;;;;23.20;12.88;;;;;;;4.97;43.80;95772.69;5011363;28;20194;-60
2022/01/26 10:59:48;;;;;;;21.77;12.07;;;;;;;4.66;44.04;95763.88;5010216;28;20316;-60
2022/01/26 11:02:22;;;;;;;25.33;13.85;;;;;;;5.14;43.67;95773.91;5011085;28;20209;-60
2022/01/26 11:04:49;;;;;;;21.83;12.70;;;;;;;4.98;43.98;95778.69;5010803;28;20210;-61
2022/01/26 11:07:17;;;;;;;21.65;12.90;;;;;;;4.50;44.87;95775.44;5011138;28;20186;-61
2022/01/26 11:09:49;;;;;;;20.85;12.55;;;;;;;4.95;44.25;95774.69;5010947;28;20596;-60
2022/01/26 11:12:27;;;;;;;24.83;13.43;;;;;;;4.31;45.34;95775.34;5011298;28;20195;-62
2022/01/26 11:15:06;;;;;;;22.15;12.10;;;;;;;4.25;45.63;95764.00;5010712;28;20229;-68
2022/01/26 11:17:36;;;;;;;25.73;13.57;;;;;;;4.36;45.33;95763.38;5010704;28;20249;-61
2022/01/26 11:20:31;;;;;;;15.82;9.98;;;;;;;4.68;45.00;95762.69;5010828;28;20241;-61
2022/01/26 11:23:02;;;;;;;20.75;12.50;;;;;;;5.27;44.35;95764.50;5010083;28;20202;-60
2022/01/26 11:25:43;;;;;;;21.52;12.68;;;;;;;4.47;45.54;95770.59;5010353;28;20228;-61
2022/01/26 11:28:23;;;;;;;23.20;12.40;;;;;;;4.61;45.70;95758.47;5009913;28;20213;-60
2022/01/26 11:30:52;;;;;;;20.38;11.82;;;;;;;5.05;44.89;95759.50;5010243;28;20672;-61
2022/01/26 11:33:23;;;;;;;19.15;10.07;;;;;;;4.04;45.54;95753.72;5010436;28;20677;-62
2022/01/26 11:35:53;;;;;;;23.40;12.30;;;;;;;4.18;46.13;95755.34;5011116;28;20193;-60
2022/01/26 11:47:15;;;;;;;23.30;11.75;;;;;;;5.18;44.57;95754.28;5010570;28;20209;-61
2022/01/26 11:49:44;;;;;;;24.42;12.30;;;;;;;5.20;44.28;95745.53;5009641;28;20719;-60
2022/01/26 11:52:29;;;;;;;72.65;31.88;;;;;;;4.33;45.56;95737.84;5010019;28;20205;-62
2022/01/26 11:54:59;;;;;;;21.55;12.05;;;;;;;4.67;45.29;95750.69;5009484;28;20301;-62
2022/01/26 11:57:47;;;;;;;17.40;9.70;;;;;;;4.36;46.23;95739.25;5010437;28;20202;-61
2022/01/26 12:00:21;;;;;;;20.88;11.32;;;;;;;4.15;46.36;95735.00;5009788;28;20233;-60
2022/01/26 12:05:20;;;;;;;20.55;11.48;;;;;;;3.88;47.94;95741.91;5009900;28;20197;-60
2022/01/26 12:07:58;;;;;;;25.75;11.98;;;;;;;4.02;47.77;95745.34;5013198;28;20193;-61
2022/01/26 12:10:28;;;;;;;21.65;11.98;;;;;;;4.27;47.20;95749.00;5012130;28;20201;-60
2022/01/26 12:13:11;;;;;;;26.17;13.57;;;;;;;4.09;47.59;95751.34;5009533;28;20197;-61
2022/01/26 12:18:32;;;;;;;22.92;12.02;;;;;;;4.25;47.85;95739.81;5009820;28;20213;-61
2022/01/26 12:43:54;;;;;;;20.92;12.13;;;;;;;4.22;48.68;95715.06;5015538;28;20228;-62
2022/01/26 12:46:28;;;;;;;22.42;13.23;;;;;;;4.51;47.49;95719.91;5015863;28;20300;-61
2022/01/26 12:48:58;;;;;;;23.92;12.65;;;;;;;4.14;48.12;95720.44;5015804;28;20566;-60
2022/01/26 12:51:27;;;;;;;20.48;12.27;;;;;;;4.07;48.47;95727.38;5014646;28;20209;-60
2022/01/26 12:54:02;;;;;;;23.00;13.30;;;;;;;4.26;48.01;95726.66;5015070;28;20190;-60
2022/01/26 12:56:32;;;;;;;22.83;13.65;;;;;;;4.03;48.54;95721.78;5016248;28;20193;-62
2022/01/26 12:59:06;;;;;;;23.30;12.48;;;;;;;4.24;48.29;95723.47;5015728;28;20719;-61
2022/01/26 13:01:34;;;;;;;25.58;13.20;;;;;;;4.11;48.50;95723.41;5015876;28;20236;-61
2022/01/26 13:04:04;;;;;;;22.05;12.07;;;;;;;3.91;49.04;95727.72;5015655;28;20265;-60
2022/01/26 13:06:38;;;;;;;25.08;13.55;;;;;;;4.22;48.20;95724.63;5016183;28;20194;-61
2022/01/26 13:09:26;;;;;;;20.33;11.98;;;;;;;3.49;49.24;95696.84;5015820;28;20192;-60
2022/01/26 13:12:02;;;;;;;15.38;8.93;;;;;;;4.12;48.11;95714.66;5015202;28;20293;-60
2022/01/26 13:14:53;;;;;;;18.27;11.35;;;;;;;4.55;47.34;95705.56;5015577;28;20182;-60
2022/01/26 13:28:32;;;;;;;20.00;12.02;;;;;;;4.61;46.80;95707.38;5015237;28;20959;-60
2022/01/26 13:39:00;;;;;;;19.85;12.75;;;;;;;5.09;45.88;95708.75;5014964;28;20232;-61
2022/01/26 13:54:58;;;;;;;16.73;10.77;;;;;;;4.98;46.19;95717.13;5011641;28;20190;-61
2022/01/26 13:59:58;;;;;;;21.02;12.88;;;;;;;5.33;45.51;95716.94;5011677;28;20198;-61
2022/01/26 14:02:28;;;;;;;19.70;11.23;;;;;;;4.95;46.12;95719.34;5012100;28;20205;-60
2022/01/26 14:04:56;;;;;;;16.10;10.52;;;;;;;4.26;47.72;95725.84;5011851;28;20201;-61
2022/01/26 14:07:23;;;;;;;17.95;10.20;;;;;;;4.33;48.12;95732.66;5012478;28;20198;-61
2022/01/26 14:09:50;;;;;;;18.15;11.35;;;;;;;5.01;46.97;95739.31;5011888;28;20262;-61
2022/01/26 14:12:22;;;;;;;19.42;11.60;;;;;;;4.81;47.06;95731.53;5012170;28;20236;-61
2022/01/26 14:14:53;;;;;;;19.73;11.48;;;;;;;4.47;47.63;95739.47;5011666;28;20285;-61
2022/01/26 14:17:34;;;;;;;16.73;10.07;;;;;;;3.71;49.45;95732.03;5011484;28;20234;-61
2022/01/26 14:20:14;;;;;;;17.52;11.25;;;;;;;4.37;48.09;95738.25;5011554;28;20680;-61